createdAt,value
2023-07-30T00:00:55.590Z,53.72
2023-07-30T00:03:23.801Z,53.95
2023-07-30T00:05:55.429Z,53.89
2023-07-30T00:08:23.454Z,54.30
2023-07-30T00:10:52.649Z,54.17
2023-07-30T00:13:20.400Z,54.34
2023-07-30T00:15:49.183Z,54.58
2023-07-30T00:18:17.261Z,54.39
2023-07-30T00:20:45.493Z,54.40
2023-07-30T00:23:13.544Z,54.46
2023-07-30T00:25:41.300Z,54.25
2023-07-30T00:28:10.410Z,54.32
2023-07-30T00:30:38.540Z,53.96
2023-07-30T00:33:06.304Z,54.01
2023-07-30T00:35:34.079Z,54.27
2023-07-30T00:38:02.152Z,54.28
2023-07-30T00:40:29.997Z,54.23
2023-07-30T00:42:57.795Z,54.54
2023-07-30T00:45:27.250Z,54.41
2023-07-30T00:47:55.176Z,54.62
2023-07-30T00:50:22.977Z,54.86
2023-07-30T00:52:51.040Z,55.01
2023-07-30T00:55:19.375Z,54.96
2023-07-30T00:57:47.870Z,55.61
2023-07-30T01:00:16.171Z,55.45
2023-07-30T01:02:45.765Z,55.36
2023-07-30T01:05:13.587Z,55.24
2023-07-30T01:07:41.661Z,55.59
2023-07-30T01:10:10.062Z,55.60
2023-07-30T01:12:39.215Z,55.52
2023-07-30T01:15:09.409Z,55.81
2023-07-30T01:17:38.032Z,56.01
2023-07-30T01:20:08.539Z,55.78
2023-07-30T01:22:37.904Z,55.59
2023-07-30T01:25:06.459Z,56.32
2023-07-30T01:27:40.835Z,56.31
2023-07-30T01:30:15.472Z,56.48
2023-07-30T01:32:44.078Z,56.54
2023-07-30T01:35:13.652Z,56.58
2023-07-30T01:37:43.592Z,56.24
2023-07-30T01:40:12.778Z,56.26
2023-07-30T01:42:40.787Z,56.17
2023-07-30T01:45:09.270Z,56.37
2023-07-30T01:47:37.072Z,56.56
2023-07-30T01:50:05.637Z,56.63
2023-07-30T01:52:33.369Z,56.28
2023-07-30T01:55:02.784Z,56.99
2023-07-30T01:57:30.834Z,56.87
2023-07-30T01:59:58.597Z,56.68
2023-07-30T02:02:26.452Z,56.35
2023-07-30T02:04:54.588Z,56.58
2023-07-30T02:07:22.358Z,56.66
2023-07-30T02:09:50.118Z,56.74
2023-07-30T02:12:19.687Z,56.42
2023-07-30T02:14:47.828Z,56.33
2023-07-30T02:17:15.599Z,56.68
2023-07-30T02:19:44.556Z,56.67
2023-07-30T02:22:12.287Z,56.74
2023-07-30T02:24:40.054Z,56.85
2023-07-30T02:27:08.182Z,56.62
2023-07-30T02:29:37.303Z,56.90
2023-07-30T02:32:05.911Z,56.81
2023-07-30T02:34:33.648Z,57.05
2023-07-30T02:37:01.458Z,57.16
2023-07-30T02:39:29.424Z,56.97
2023-07-30T02:41:57.214Z,56.78
2023-07-30T02:44:25.013Z,56.81
2023-07-30T02:46:54.276Z,57.07
2023-07-30T02:49:22.013Z,57.03
2023-07-30T02:51:51.161Z,56.98
2023-07-30T02:54:22.093Z,57.17
2023-07-30T02:56:49.877Z,56.91
2023-07-30T02:59:17.625Z,57.05
2023-07-30T03:01:46.109Z,57.22
2023-07-30T03:04:15.253Z,57.17
2023-07-30T03:06:42.988Z,57.52
2023-07-30T03:09:11.024Z,57.54
2023-07-30T03:11:39.000Z,57.41
2023-07-30T03:14:07.045Z,57.63
2023-07-30T03:16:35.113Z,57.61
2023-07-30T03:19:02.891Z,57.36
2023-07-30T03:21:32.044Z,57.48
2023-07-30T03:24:00.024Z,57.64
2023-07-30T03:26:27.780Z,57.64
2023-07-30T03:28:55.509Z,57.46
2023-07-30T03:31:23.457Z,57.25
2023-07-30T03:33:51.450Z,57.72
2023-07-30T03:36:19.183Z,57.74
2023-07-30T03:38:48.519Z,57.76
2023-07-30T03:41:16.256Z,57.93
2023-07-30T03:43:44.002Z,57.98
2023-07-30T03:46:12.076Z,58.08
2023-07-30T03:48:40.425Z,58.22
2023-07-30T03:51:09.364Z,57.91
2023-07-30T03:53:37.483Z,58.00
2023-07-30T03:56:06.765Z,57.95
2023-07-30T03:58:34.497Z,58.03
2023-07-30T04:01:02.571Z,57.96
2023-07-30T04:03:30.513Z,57.42
2023-07-30T04:05:58.323Z,57.75
2023-07-30T04:08:26.153Z,58.13
2023-07-30T04:10:53.895Z,57.91
2023-07-30T04:13:23.194Z,57.96
2023-07-30T04:15:50.997Z,58.41
2023-07-30T04:18:18.733Z,58.10
2023-07-30T04:20:46.488Z,58.05
2023-07-30T04:23:14.510Z,58.41
2023-07-30T04:25:42.415Z,58.10
2023-07-30T04:28:10.192Z,57.99
2023-07-30T04:30:39.578Z,58.34
2023-07-30T04:33:07.418Z,58.42
2023-07-30T04:35:35.193Z,58.24
2023-07-30T04:38:03.161Z,58.11
2023-07-30T04:40:31.558Z,58.28
2023-07-30T04:42:59.284Z,58.30
2023-07-30T04:45:27.334Z,58.26
2023-07-30T04:47:56.520Z,58.31
2023-07-30T04:50:24.474Z,58.47
2023-07-30T04:52:52.587Z,58.39
2023-07-30T04:55:20.418Z,58.46
2023-07-30T04:57:48.422Z,58.70
2023-07-30T05:00:16.383Z,58.52
2023-07-30T05:02:44.185Z,58.95
2023-07-30T05:05:13.806Z,58.63
2023-07-30T05:07:41.613Z,58.67
2023-07-30T05:10:11.955Z,58.80
2023-07-30T05:12:40.059Z,58.85
2023-07-30T05:15:08.933Z,58.90
2023-07-30T05:17:36.871Z,58.87
2023-07-30T05:20:05.271Z,58.95
2023-07-30T05:22:34.622Z,59.37
2023-07-30T05:25:02.355Z,59.02
2023-07-30T05:27:32.426Z,59.26
2023-07-30T05:30:00.438Z,59.29
2023-07-30T05:32:28.365Z,59.32
2023-07-30T05:34:56.133Z,59.12
2023-07-30T05:37:24.552Z,59.59
2023-07-30T05:39:53.674Z,59.72
2023-07-30T05:42:21.424Z,59.52
2023-07-30T05:44:49.514Z,59.65
2023-07-30T05:47:17.273Z,59.70
2023-07-30T05:49:45.065Z,59.66
2023-07-30T05:52:13.150Z,59.73
2023-07-30T05:54:40.955Z,59.67
2023-07-30T05:57:10.112Z,59.69
2023-07-30T05:59:38.109Z,59.62
2023-07-30T06:02:06.421Z,59.43
2023-07-30T06:04:34.199Z,59.34
2023-07-30T06:07:02.620Z,59.72
2023-07-30T06:09:30.816Z,59.44
2023-07-30T06:11:59.632Z,59.35
2023-07-30T06:14:29.211Z,59.49
2023-07-30T06:16:57.209Z,59.40
2023-07-30T06:19:25.054Z,59.72
2023-07-30T06:21:53.542Z,59.73
2023-07-30T06:24:21.318Z,59.86
2023-07-30T06:26:49.359Z,59.75
2023-07-30T06:29:17.360Z,59.51
2023-07-30T06:31:46.812Z,59.79
2023-07-30T06:34:14.428Z,59.73
2023-07-30T06:36:42.823Z,59.64
2023-07-30T06:39:10.599Z,59.82
2023-07-30T06:41:38.959Z,59.63
2023-07-30T06:44:06.950Z,59.66
2023-07-30T06:46:35.163Z,60.08
2023-07-30T06:49:04.368Z,60.06
2023-07-30T06:51:32.327Z,59.89
2023-07-30T06:54:00.403Z,59.86
2023-07-30T06:56:28.160Z,59.76
2023-07-30T06:58:57.538Z,59.61
2023-07-30T07:01:25.398Z,60.14
2023-07-30T07:03:53.814Z,60.13
2023-07-30T07:06:22.984Z,59.62
2023-07-30T07:08:50.747Z,59.73
2023-07-30T07:11:19.019Z,59.58
2023-07-30T07:13:46.833Z,59.47
2023-07-30T07:16:15.005Z,58.82
2023-07-30T07:18:43.354Z,58.92
2023-07-30T07:21:11.416Z,58.60
2023-07-30T07:23:40.525Z,58.44
2023-07-30T07:26:08.748Z,58.24
2023-07-30T07:28:37.029Z,58.12
2023-07-30T07:31:04.907Z,57.94
2023-07-30T07:33:33.346Z,57.62
2023-07-30T07:36:07.656Z,57.40
2023-07-30T07:38:36.704Z,57.40
2023-07-30T07:41:05.912Z,56.45
2023-07-30T07:43:33.656Z,56.74
2023-07-30T07:46:01.997Z,56.33
2023-07-30T07:48:29.726Z,56.18
2023-07-30T07:50:57.502Z,56.19
2023-07-30T07:53:25.852Z,55.78
2023-07-30T07:55:53.601Z,55.87
2023-07-30T07:58:22.705Z,55.53
2023-07-30T08:00:50.784Z,56.11
2023-07-30T08:03:18.527Z,55.67
2023-07-30T08:05:47.208Z,56.05
2023-07-30T08:08:14.967Z,55.61
2023-07-30T08:10:44.757Z,55.48
2023-07-30T08:13:12.935Z,55.45
2023-07-30T08:15:43.070Z,55.75
2023-07-30T08:18:11.093Z,55.41
2023-07-30T08:20:38.920Z,55.05
2023-07-30T08:23:07.301Z,54.97
2023-07-30T08:25:35.109Z,55.10
2023-07-30T08:28:02.930Z,54.42
2023-07-30T08:30:31.333Z,54.31
2023-07-30T08:33:00.567Z,54.31
2023-07-30T08:35:29.098Z,54.23
2023-07-30T08:37:57.594Z,54.49
2023-07-30T08:40:26.002Z,54.45
2023-07-30T08:42:54.699Z,54.69
2023-07-30T08:45:23.671Z,54.17
2023-07-30T08:47:51.504Z,53.90
2023-07-30T08:50:20.859Z,53.53
2023-07-30T08:52:50.887Z,53.27
2023-07-30T08:55:20.269Z,53.31
2023-07-30T08:57:48.380Z,53.59
2023-07-30T09:00:19.736Z,52.94
2023-07-30T09:02:57.002Z,53.17
2023-07-30T09:05:26.865Z,52.77
2023-07-30T09:07:55.313Z,52.89
2023-07-30T09:10:23.257Z,52.85
2023-07-30T09:12:56.321Z,53.35
2023-07-30T09:15:33.390Z,54.19
2023-07-30T09:18:02.476Z,55.28
2023-07-30T09:20:39.580Z,55.35
2023-07-30T09:23:08.035Z,56.33
2023-07-30T09:25:36.365Z,56.58
2023-07-30T09:28:04.390Z,56.89
2023-07-30T09:30:34.972Z,56.86
2023-07-30T09:33:02.850Z,56.69
2023-07-30T09:35:35.789Z,56.22
2023-07-30T09:38:05.533Z,56.39
2023-07-30T09:40:34.672Z,56.32
2023-07-30T09:43:04.886Z,57.29
2023-07-30T09:45:36.150Z,57.17
2023-07-30T09:48:06.934Z,56.50
2023-07-30T09:50:37.646Z,55.94
2023-07-30T09:53:06.388Z,56.07
2023-07-30T09:55:34.829Z,55.42
2023-07-30T09:58:02.652Z,55.66
2023-07-30T10:00:31.828Z,54.92
2023-07-30T10:03:01.706Z,55.50
2023-07-30T10:05:35.080Z,55.76
2023-07-30T10:08:09.391Z,54.50
2023-07-30T10:10:37.533Z,54.72
2023-07-30T10:13:08.878Z,55.33
2023-07-30T10:15:38.352Z,53.98
2023-07-30T10:18:06.709Z,54.15
2023-07-30T10:20:34.573Z,52.26
2023-07-30T10:23:06.698Z,52.27
2023-07-30T10:25:45.781Z,52.67
2023-07-30T10:28:29.699Z,52.62
2023-07-30T10:30:58.576Z,52.19
2023-07-30T10:33:45.634Z,52.91
2023-07-30T10:36:13.566Z,53.96
2023-07-30T10:38:43.754Z,53.30
2023-07-30T10:41:14.556Z,52.28
2023-07-30T10:43:43.671Z,51.64
2023-07-30T10:46:13.029Z,50.62
2023-07-30T10:48:42.433Z,51.83
2023-07-30T10:51:12.284Z,50.82
2023-07-30T10:53:40.585Z,50.19
2023-07-30T10:56:11.634Z,49.97
2023-07-30T10:58:39.542Z,50.25
2023-07-30T11:01:08.464Z,51.24
2023-07-30T11:03:37.655Z,51.63
2023-07-30T11:06:05.667Z,51.32
2023-07-30T11:08:39.001Z,52.29
2023-07-30T11:11:08.268Z,52.07
2023-07-30T11:13:44.385Z,51.66
2023-07-30T11:16:12.676Z,52.08
2023-07-30T11:18:42.154Z,51.18
2023-07-30T11:21:10.320Z,51.79
2023-07-30T11:23:39.817Z,50.85
2023-07-30T11:26:10.351Z,51.38
2023-07-30T11:28:41.093Z,49.11
2023-07-30T11:31:10.867Z,48.86
2023-07-30T11:33:40.629Z,49.00
2023-07-30T11:36:10.961Z,49.96
2023-07-30T11:38:40.960Z,48.11
2023-07-30T11:41:12.353Z,47.29
2023-07-30T11:43:43.767Z,47.09
2023-07-30T11:46:14.396Z,46.49
2023-07-30T11:48:44.785Z,46.66
2023-07-30T11:51:24.823Z,47.30
2023-07-30T11:53:54.325Z,47.30
2023-07-30T11:56:25.181Z,45.71
2023-07-30T11:58:57.226Z,45.90
2023-07-30T12:01:26.840Z,47.63
2023-07-30T12:03:57.075Z,45.24
2023-07-30T12:06:25.392Z,44.71
2023-07-30T12:08:53.565Z,44.35
2023-07-30T12:11:21.996Z,43.86
2023-07-30T12:13:51.490Z,44.77
2023-07-30T12:16:22.330Z,44.32
2023-07-30T12:18:50.316Z,44.23
2023-07-30T12:21:18.062Z,43.66
2023-07-30T12:23:46.052Z,43.94
2023-07-30T12:26:13.835Z,45.00
2023-07-30T12:28:41.553Z,45.47
2023-07-30T12:31:09.536Z,45.98
2023-07-30T12:33:38.895Z,45.69
2023-07-30T12:36:06.934Z,46.20
2023-07-30T12:38:35.725Z,46.56
2023-07-30T12:41:03.532Z,45.23
2023-07-30T12:43:31.326Z,44.91
2023-07-30T12:45:59.370Z,44.32
2023-07-30T12:48:27.127Z,44.43
2023-07-30T12:50:58.131Z,44.99
2023-07-30T12:53:26.869Z,44.01
2023-07-30T12:55:54.629Z,43.42
2023-07-30T12:58:22.385Z,43.22
2023-07-30T13:00:50.724Z,43.17
2023-07-30T13:03:18.619Z,43.34
2023-07-30T13:05:46.449Z,42.52
2023-07-30T13:08:16.301Z,42.02
2023-07-30T13:10:44.327Z,42.32
2023-07-30T13:13:12.137Z,42.02
2023-07-30T13:15:40.306Z,41.83
2023-07-30T13:18:08.069Z,42.01
2023-07-30T13:20:35.810Z,41.80
2023-07-30T13:23:04.136Z,42.13
2023-07-30T13:25:33.599Z,41.03
2023-07-30T13:28:01.370Z,41.04
2023-07-30T13:30:29.919Z,41.28
2023-07-30T13:32:57.747Z,40.86
2023-07-30T13:35:25.635Z,40.38
2023-07-30T13:37:53.690Z,40.61
2023-07-30T13:40:21.613Z,41.52
2023-07-30T13:42:50.694Z,40.47
2023-07-30T13:45:19.654Z,39.82
2023-07-30T13:47:47.535Z,39.86
2023-07-30T13:50:15.437Z,40.06
2023-07-30T13:52:43.629Z,39.26
2023-07-30T13:55:11.394Z,39.12
2023-07-30T13:57:39.171Z,39.34
2023-07-30T14:00:10.403Z,39.02
2023-07-30T14:02:38.296Z,40.03
2023-07-30T14:05:06.675Z,39.81
2023-07-30T14:07:35.956Z,39.92
2023-07-30T14:10:03.800Z,39.64
2023-07-30T14:12:31.956Z,40.55
2023-07-30T14:14:59.837Z,40.43
2023-07-30T14:17:28.987Z,40.18
2023-07-30T14:19:57.514Z,39.78
2023-07-30T14:22:25.226Z,40.54
2023-07-30T14:24:53.129Z,40.47
2023-07-30T14:27:21.918Z,40.66
2023-07-30T14:29:49.825Z,41.14
2023-07-30T14:32:18.239Z,41.17
2023-07-30T14:34:47.412Z,41.14
2023-07-30T14:37:15.246Z,41.30
2023-07-30T14:39:43.093Z,41.21
2023-07-30T14:42:11.161Z,41.02
2023-07-30T14:44:39.470Z,41.93
2023-07-30T14:47:09.496Z,41.71
2023-07-30T14:49:39.002Z,42.40
2023-07-30T14:52:08.415Z,42.24
2023-07-30T14:54:35.979Z,42.17
2023-07-30T14:57:04.014Z,42.58
2023-07-30T14:59:31.741Z,43.11
2023-07-30T15:01:59.530Z,43.37
2023-07-30T15:04:27.548Z,42.88
2023-07-30T15:06:55.278Z,43.35
2023-07-30T15:09:24.444Z,43.80
2023-07-30T15:11:52.425Z,44.04
2023-07-30T15:14:20.265Z,44.17
2023-07-30T15:16:48.052Z,44.41
2023-07-30T15:19:15.853Z,44.61
2023-07-30T15:21:43.609Z,45.23
2023-07-30T15:24:11.353Z,45.04
2023-07-30T15:26:40.942Z,45.37
2023-07-30T15:29:08.992Z,44.84
2023-07-30T15:31:36.920Z,45.24
2023-07-30T15:34:04.907Z,45.41
2023-07-30T15:36:32.684Z,45.19
2023-07-30T15:39:00.512Z,45.26
2023-07-30T15:41:29.304Z,45.51
2023-07-30T15:43:58.410Z,45.82
2023-07-30T15:46:26.182Z,47.00
2023-07-30T15:48:54.205Z,47.57
2023-07-30T15:51:21.969Z,48.40
2023-07-30T15:53:52.333Z,48.46
2023-07-30T15:56:20.608Z,48.60
2023-07-30T15:58:48.368Z,48.89
2023-07-30T16:01:17.556Z,49.11
2023-07-30T16:03:45.600Z,49.46
2023-07-30T16:06:13.404Z,49.48
2023-07-30T16:08:41.673Z,50.03
2023-07-30T16:11:12.075Z,50.39
2023-07-30T16:13:39.834Z,50.96
2023-07-30T16:16:09.876Z,51.48
2023-07-30T16:18:39.620Z,52.19
2023-07-30T16:21:07.848Z,52.49
2023-07-30T16:23:35.745Z,52.70
2023-07-30T16:26:04.156Z,53.38
2023-07-30T16:28:32.017Z,53.61
2023-07-30T16:31:00.213Z,54.40
2023-07-30T16:33:28.294Z,54.88
2023-07-30T16:35:57.429Z,55.16
2023-07-30T16:38:25.252Z,55.97
2023-07-30T16:40:54.282Z,56.39
2023-07-30T16:43:22.367Z,56.43
2023-07-30T16:45:50.164Z,56.89
2023-07-30T16:48:18.549Z,57.24
2023-07-30T16:50:47.352Z,57.78
2023-07-30T16:53:16.466Z,57.84
2023-07-30T16:55:44.447Z,57.77
2023-07-30T16:58:12.383Z,57.71
2023-07-30T17:00:40.215Z,57.90
2023-07-30T17:03:08.207Z,58.18
2023-07-30T17:05:36.227Z,58.10
2023-07-30T17:08:04.136Z,57.60
2023-07-30T17:10:37.669Z,58.02
2023-07-30T17:13:05.459Z,58.37
2023-07-30T17:15:33.232Z,58.60
2023-07-30T17:18:01.072Z,58.33
2023-07-30T17:20:28.932Z,58.76
2023-07-30T17:22:56.698Z,58.94
2023-07-30T17:25:24.472Z,59.04
2023-07-30T17:27:53.568Z,59.13
2023-07-30T17:30:21.531Z,59.11
2023-07-30T17:32:49.729Z,59.02
2023-07-30T17:35:17.558Z,59.51
2023-07-30T17:37:45.304Z,59.38
2023-07-30T17:40:13.509Z,59.65
2023-07-30T17:42:41.259Z,59.90
2023-07-30T17:45:11.411Z,60.14
2023-07-30T17:47:39.462Z,60.07
2023-07-30T17:50:07.795Z,60.12
2023-07-30T17:52:35.536Z,60.04
2023-07-30T17:55:03.667Z,60.16
2023-07-30T17:57:31.476Z,60.24
2023-07-30T17:59:59.314Z,60.12
2023-07-30T18:02:28.962Z,59.67
2023-07-30T18:04:56.831Z,60.73
2023-07-30T18:07:24.618Z,60.24
2023-07-30T18:09:53.400Z,61.05
2023-07-30T18:12:21.672Z,61.13
2023-07-30T18:14:49.394Z,61.19
2023-07-30T18:17:17.382Z,61.32
2023-07-30T18:19:46.611Z,61.60
2023-07-30T18:22:14.415Z,61.75
2023-07-30T18:24:42.392Z,61.71
2023-07-30T18:27:10.136Z,61.73
2023-07-30T18:29:37.848Z,61.73
2023-07-30T18:32:09.458Z,61.83
2023-07-30T18:34:38.126Z,61.73
2023-07-30T18:37:08.191Z,61.67
2023-07-30T18:39:36.158Z,61.68
2023-07-30T18:42:04.210Z,62.17
2023-07-30T18:44:31.993Z,62.37
2023-07-30T18:47:01.828Z,62.36
2023-07-30T18:49:30.085Z,62.86
2023-07-30T18:51:57.810Z,62.86
2023-07-30T18:54:27.181Z,63.18
2023-07-30T18:56:55.237Z,63.14
2023-07-30T18:59:23.022Z,62.74
2023-07-30T19:01:50.761Z,63.20
2023-07-30T19:04:18.479Z,63.40
2023-07-30T19:06:46.202Z,62.98
2023-07-30T19:09:13.939Z,62.98
2023-07-30T19:11:43.067Z,62.90
2023-07-30T19:14:10.898Z,63.13
2023-07-30T19:16:38.975Z,63.13
2023-07-30T19:19:06.968Z,63.24
2023-07-30T19:21:34.687Z,63.48
2023-07-30T19:24:02.543Z,63.36
2023-07-30T19:26:30.293Z,63.53
2023-07-30T19:28:59.418Z,63.56
2023-07-30T19:31:27.488Z,63.52
2023-07-30T19:33:55.223Z,63.69
2023-07-30T19:36:22.925Z,63.88
2023-07-30T19:38:50.691Z,63.70
2023-07-30T19:41:27.438Z,63.90
2023-07-30T19:43:56.109Z,64.25
2023-07-30T19:46:25.299Z,64.44
2023-07-30T19:48:53.192Z,64.17
2023-07-30T19:51:21.676Z,64.20
2023-07-30T19:53:49.429Z,63.81
2023-07-30T19:56:17.163Z,64.17
2023-07-30T19:58:45.134Z,64.40
2023-07-30T20:01:13.008Z,64.33
2023-07-30T20:03:42.153Z,64.45
2023-07-30T20:06:14.173Z,64.66
2023-07-30T20:08:42.411Z,64.47
2023-07-30T20:11:11.913Z,64.43
2023-07-30T20:13:39.538Z,64.09
2023-07-30T20:16:13.443Z,64.56
2023-07-30T20:18:42.846Z,64.25
2023-07-30T20:21:11.174Z,64.30
2023-07-30T20:23:39.654Z,64.86
2023-07-30T20:26:13.797Z,64.30
2023-07-30T20:28:43.381Z,64.51
2023-07-30T20:31:11.259Z,64.99
2023-07-30T20:33:40.405Z,64.69
2023-07-30T20:36:09.951Z,65.25
2023-07-30T20:38:37.517Z,64.48
2023-07-30T20:41:05.382Z,64.38
2023-07-30T20:43:33.365Z,64.57
2023-07-30T20:46:01.198Z,64.77
2023-07-30T20:48:28.996Z,64.45
2023-07-30T20:50:58.581Z,64.67
2023-07-30T20:53:27.511Z,64.18
2023-07-30T20:55:55.374Z,64.53
2023-07-30T20:58:23.968Z,63.75
2023-07-30T21:00:51.827Z,64.32
2023-07-30T21:03:20.015Z,64.43
2023-07-30T21:05:47.858Z,64.78
2023-07-30T21:08:15.639Z,64.65
2023-07-30T21:10:44.813Z,64.47
2023-07-30T21:13:12.567Z,64.08
2023-07-30T21:15:40.352Z,64.37
2023-07-30T21:18:08.319Z,64.17
2023-07-30T21:20:36.082Z,64.40
2023-07-30T21:23:03.953Z,64.36
2023-07-30T21:25:33.704Z,64.80
2023-07-30T21:28:02.942Z,64.97
2023-07-30T21:30:31.099Z,64.67
2023-07-30T21:32:59.500Z,64.24
2023-07-30T21:35:27.309Z,64.32
2023-07-30T21:37:55.048Z,64.19
2023-07-30T21:40:22.970Z,64.30
2023-07-30T21:42:50.906Z,64.20
2023-07-30T21:45:20.020Z,64.66
2023-07-30T21:47:47.993Z,64.45
2023-07-30T21:50:15.958Z,64.25
2023-07-30T21:52:44.031Z,64.36
2023-07-30T21:55:12.063Z,64.05
2023-07-30T21:57:39.805Z,64.31
2023-07-30T22:00:09.868Z,64.66
2023-07-30T22:02:39.297Z,64.27
2023-07-30T22:05:07.567Z,64.18
2023-07-30T22:07:35.312Z,64.23
2023-07-30T22:10:03.374Z,64.20
2023-07-30T22:12:31.141Z,64.31
2023-07-30T22:14:58.934Z,64.23
2023-07-30T22:17:27.101Z,64.11
2023-07-30T22:19:56.365Z,63.94
2023-07-30T22:22:24.187Z,63.97
2023-07-30T22:24:52.255Z,63.86
2023-07-30T22:27:20.058Z,64.01
2023-07-30T22:29:48.008Z,63.42
2023-07-30T22:32:16.149Z,63.29
2023-07-30T22:34:43.924Z,63.24
2023-07-30T22:37:13.054Z,63.35
2023-07-30T22:39:41.155Z,62.82
2023-07-30T22:42:09.207Z,63.11
2023-07-30T22:44:36.963Z,63.15
2023-07-30T22:47:04.850Z,62.78
2023-07-30T22:49:33.043Z,62.57
2023-07-30T22:52:01.134Z,62.74
2023-07-30T22:54:30.229Z,62.82
2023-07-30T22:56:58.351Z,62.95
2023-07-30T22:59:26.104Z,63.04
2023-07-30T23:01:54.236Z,63.26
2023-07-30T23:04:22.316Z,63.33
2023-07-30T23:06:50.052Z,63.18
2023-07-30T23:09:18.139Z,63.36
2023-07-30T23:11:47.366Z,63.14
2023-07-30T23:14:16.291Z,63.19
2023-07-30T23:16:44.728Z,63.04
2023-07-30T23:19:12.904Z,63.20
2023-07-30T23:21:40.716Z,63.39
2023-07-30T23:24:09.140Z,63.23
2023-07-30T23:26:37.720Z,63.53
2023-07-30T23:29:07.128Z,63.60
2023-07-30T23:31:34.944Z,63.51
2023-07-30T23:34:03.270Z,63.65
2023-07-30T23:36:31.011Z,63.82
2023-07-30T23:38:59.229Z,63.79
2023-07-30T23:41:27.043Z,64.09
2023-07-30T23:43:54.805Z,63.73
2023-07-30T23:46:24.273Z,63.81
2023-07-30T23:48:52.041Z,63.91
2023-07-30T23:51:20.412Z,63.92
2023-07-30T23:53:48.146Z,63.74
2023-07-30T23:56:15.887Z,64.07
2023-07-30T23:58:43.844Z,63.94
